createdAt,value
2023-01-15T00:02:45.530Z,100.00
2023-01-15T00:05:47.577Z,100.00
2023-01-15T00:08:52.532Z,100.00
2023-01-15T00:11:55.082Z,100.00
2023-01-15T00:14:58.324Z,100.00
2023-01-15T00:18:00.399Z,100.00
2023-01-15T00:21:03.407Z,100.00
2023-01-15T00:24:26.034Z,100.00
2023-01-15T00:27:40.168Z,100.00
2023-01-15T00:30:43.611Z,100.00
2023-01-15T00:33:45.683Z,100.00
2023-01-15T00:36:47.760Z,100.00
2023-01-15T00:39:51.113Z,100.00
2023-01-15T00:42:54.283Z,100.00
2023-01-15T00:45:56.939Z,100.00
2023-01-15T00:48:58.813Z,100.00
2023-01-15T00:52:00.781Z,100.00
2023-01-15T00:55:06.418Z,100.00
2023-01-15T00:58:08.331Z,100.00
2023-01-15T01:01:13.445Z,100.00
2023-01-15T01:04:16.404Z,100.00
2023-01-15T01:07:18.539Z,100.00
2023-01-15T01:10:22.090Z,100.00
2023-01-15T01:13:24.478Z,100.00
2023-01-15T01:16:30.802Z,100.00
2023-01-15T01:19:32.830Z,100.00
2023-01-15T01:22:35.008Z,100.00
2023-01-15T01:25:38.700Z,100.00
2023-01-15T01:28:40.786Z,100.00
2023-01-15T01:31:43.039Z,100.00
2023-01-15T01:34:46.032Z,100.00
2023-01-15T01:37:51.053Z,100.00
2023-01-15T01:40:54.718Z,100.00
2023-01-15T01:43:59.255Z,100.00
2023-01-15T01:47:03.553Z,100.00
2023-01-15T01:50:09.795Z,100.00
2023-01-15T01:53:17.997Z,100.00
2023-01-15T01:56:23.349Z,100.00
2023-01-15T01:59:26.170Z,100.00
2023-01-15T02:02:29.100Z,100.00
2023-01-15T02:05:33.529Z,100.00
2023-01-15T02:08:39.462Z,100.00
2023-01-15T02:11:43.004Z,100.00
2023-01-15T02:14:53.512Z,100.00
2023-01-15T02:18:01.710Z,100.00
2023-01-15T02:21:10.949Z,100.00
2023-01-15T02:24:23.672Z,100.00
2023-01-15T02:27:27.762Z,100.00
2023-01-15T02:30:35.604Z,100.00
2023-01-15T02:33:40.910Z,100.00
2023-01-15T02:36:47.103Z,100.00
2023-01-15T02:40:00.451Z,100.00
2023-01-15T02:43:06.889Z,100.00
2023-01-15T02:46:10.436Z,100.00
2023-01-15T02:49:17.315Z,100.00
2023-01-15T02:52:25.734Z,100.00
2023-01-15T02:55:32.810Z,100.00
2023-01-15T02:58:38.895Z,100.00
2023-01-15T03:01:46.490Z,100.00
2023-01-15T03:04:55.143Z,100.00
2023-01-15T03:07:59.958Z,100.00
2023-01-15T03:11:10.415Z,100.00
2023-01-15T03:14:22.145Z,100.00
2023-01-15T03:17:33.197Z,100.00
2023-01-15T03:20:39.045Z,100.00
2023-01-15T03:23:47.388Z,100.00
2023-01-15T03:26:50.566Z,100.00
2023-01-15T03:30:01.783Z,100.00
2023-01-15T03:33:04.378Z,100.00
2023-01-15T03:36:09.129Z,100.00
2023-01-15T03:39:15.644Z,100.00
2023-01-15T03:42:27.444Z,100.00
2023-01-15T03:45:36.113Z,100.00
2023-01-15T03:48:44.501Z,100.00
2023-01-15T03:51:56.921Z,100.00
2023-01-15T03:55:08.240Z,100.00
2023-01-15T03:58:15.417Z,100.00
2023-01-15T04:01:27.848Z,100.00
2023-01-15T04:04:31.136Z,100.00
2023-01-15T04:07:35.431Z,100.00
2023-01-15T04:10:38.526Z,100.00
2023-01-15T04:13:45.677Z,100.00
2023-01-15T04:17:00.818Z,100.00
2023-01-15T04:20:04.979Z,100.00
2023-01-15T04:23:07.834Z,100.00
2023-01-15T04:26:09.760Z,100.00
2023-01-15T04:29:11.710Z,100.00
2023-01-15T04:32:21.266Z,100.00
2023-01-15T04:35:23.137Z,100.00
2023-01-15T04:38:25.067Z,100.00
2023-01-15T04:41:46.018Z,100.00
2023-01-15T04:44:47.973Z,100.00
2023-01-15T04:47:51.665Z,100.00
2023-01-15T04:50:53.676Z,100.00
2023-01-15T04:53:55.892Z,100.00
2023-01-15T04:56:57.904Z,100.00
2023-01-15T04:59:59.875Z,100.00
2023-01-15T05:03:03.482Z,100.00
2023-01-15T05:06:06.089Z,100.00
2023-01-15T05:09:08.141Z,100.00
2023-01-15T05:12:10.588Z,100.00
2023-01-15T05:15:12.678Z,100.00
2023-01-15T05:18:15.998Z,100.00
2023-01-15T05:21:21.037Z,100.00
2023-01-15T05:24:24.142Z,100.00
2023-01-15T05:27:26.094Z,100.00
2023-01-15T05:30:28.205Z,100.00
2023-01-15T05:33:31.535Z,100.00
2023-01-15T05:36:33.809Z,100.00
2023-01-15T05:39:36.110Z,100.00
2023-01-15T05:42:37.921Z,100.00
2023-01-15T05:45:39.964Z,100.00
2023-01-15T05:48:43.370Z,100.00
2023-01-15T05:51:46.065Z,100.00
2023-01-15T05:54:50.603Z,100.00
2023-01-15T05:57:52.631Z,100.00
2023-01-15T06:00:55.160Z,100.00
2023-01-15T06:04:00.199Z,100.00
2023-01-15T06:07:02.324Z,100.00
2023-01-15T06:10:05.119Z,100.00
2023-01-15T06:13:07.109Z,100.00
2023-01-15T06:16:13.221Z,100.00
2023-01-15T06:19:17.092Z,100.00
2023-01-15T06:22:19.330Z,100.00
2023-01-15T06:25:21.369Z,100.00
2023-01-15T06:28:23.315Z,100.00
2023-01-15T06:31:28.543Z,100.00
2023-01-15T06:34:32.164Z,100.00
2023-01-15T06:37:34.215Z,100.00
2023-01-15T06:40:39.677Z,100.00
2023-01-15T06:44:00.863Z,100.00
2023-01-15T06:47:22.130Z,100.00
2023-01-15T06:50:26.071Z,100.00
2023-01-15T06:53:28.229Z,100.00
2023-01-15T06:56:29.961Z,100.00
2023-01-15T06:59:32.142Z,100.00
2023-01-15T07:02:34.094Z,100.00
2023-01-15T07:05:40.324Z,99.83
2023-01-15T07:08:42.455Z,99.10
2023-01-15T07:11:50.662Z,100.00
2023-01-15T07:14:52.921Z,100.00
2023-01-15T07:17:54.958Z,99.86
2023-01-15T07:20:59.304Z,98.44
2023-01-15T07:24:01.934Z,98.22
2023-01-15T07:27:04.502Z,98.69
2023-01-15T07:30:07.693Z,98.38
2023-01-15T07:33:09.742Z,97.38
2023-01-15T07:36:13.558Z,97.11
2023-01-15T07:39:15.642Z,97.46
2023-01-15T07:42:36.000Z,96.43
2023-01-15T07:46:08.366Z,97.16
2023-01-15T07:49:30.264Z,96.91
2023-01-15T07:52:33.734Z,96.99
2023-01-15T07:55:36.342Z,98.63
2023-01-15T07:58:38.381Z,99.78
2023-01-15T08:01:40.568Z,100.00
2023-01-15T08:04:43.061Z,100.00
2023-01-15T08:07:50.177Z,100.00
2023-01-15T08:11:11.419Z,100.00
2023-01-15T08:14:34.447Z,100.00
2023-01-15T08:17:37.619Z,100.00
2023-01-15T08:20:39.504Z,100.00
2023-01-15T08:23:43.577Z,100.00
2023-01-15T08:26:45.548Z,100.00
2023-01-15T08:29:47.841Z,98.74
2023-01-15T08:32:49.840Z,98.53
2023-01-15T08:35:57.031Z,97.63
2023-01-15T08:39:02.094Z,98.02
2023-01-15T08:42:04.341Z,96.65
2023-01-15T08:45:09.404Z,96.74
2023-01-15T08:48:11.388Z,95.92
2023-01-15T08:51:13.251Z,95.21
2023-01-15T08:54:16.566Z,95.64
2023-01-15T08:57:18.279Z,95.66
2023-01-15T09:00:21.837Z,95.51
2023-01-15T09:03:23.857Z,94.09
2023-01-15T09:06:26.143Z,93.87
2023-01-15T09:09:29.559Z,98.80
2023-01-15T09:12:31.397Z,100.00
2023-01-15T09:15:34.564Z,100.00
2023-01-15T09:18:39.117Z,100.00
2023-01-15T09:21:41.146Z,100.00
2023-01-15T09:24:44.675Z,100.00
2023-01-15T09:27:46.954Z,100.00
2023-01-15T09:30:49.480Z,100.00
2023-01-15T09:33:51.695Z,100.00
2023-01-15T09:36:53.978Z,100.00
2023-01-15T09:39:57.682Z,100.00
2023-01-15T09:43:06.907Z,100.00
2023-01-15T09:46:14.420Z,100.00
2023-01-15T09:49:26.275Z,100.00
2023-01-15T09:52:47.187Z,100.00
2023-01-15T09:55:53.030Z,100.00
2023-01-15T09:58:56.566Z,100.00
2023-01-15T10:02:00.545Z,100.00
2023-01-15T10:05:09.091Z,100.00
2023-01-15T10:08:16.269Z,100.00
2023-01-15T10:12:01.271Z,100.00
2023-01-15T10:15:15.313Z,100.00
2023-01-15T10:18:21.295Z,100.00
2023-01-15T10:21:36.260Z,100.00
2023-01-15T10:24:43.146Z,100.00
2023-01-15T10:27:50.766Z,100.00
2023-01-15T10:30:55.386Z,100.00
2023-01-15T10:34:14.774Z,100.00
2023-01-15T10:37:21.924Z,100.00
2023-01-15T10:40:40.167Z,100.00
2023-01-15T10:43:50.220Z,100.00
2023-01-15T10:46:58.546Z,100.00
2023-01-15T10:50:02.739Z,100.00
2023-01-15T10:53:15.304Z,98.21
2023-01-15T10:56:28.460Z,96.86
2023-01-15T10:59:42.751Z,96.43
2023-01-15T11:02:47.471Z,96.35
2023-01-15T11:05:50.163Z,92.84
2023-01-15T11:09:12.894Z,92.51
2023-01-15T11:12:30.572Z,90.87
2023-01-15T11:15:57.252Z,91.12
2023-01-15T11:19:23.178Z,91.32
2023-01-15T11:22:49.991Z,88.71
2023-01-15T11:25:54.682Z,88.98
2023-01-15T11:29:00.416Z,89.57
2023-01-15T11:32:04.658Z,87.38
2023-01-15T11:35:16.578Z,87.19
2023-01-15T11:38:23.252Z,87.38
2023-01-15T11:41:49.755Z,87.09
2023-01-15T11:45:16.246Z,84.36
2023-01-15T11:48:41.770Z,82.48
2023-01-15T11:51:49.382Z,81.73
2023-01-15T11:54:54.564Z,80.33
2023-01-15T11:57:58.668Z,79.58
2023-01-15T12:01:02.499Z,80.72
2023-01-15T12:04:25.711Z,80.79
2023-01-15T12:07:31.715Z,80.09
2023-01-15T12:11:10.910Z,79.98
2023-01-15T12:14:44.398Z,79.79
2023-01-15T12:18:09.196Z,79.36
2023-01-15T12:21:32.675Z,80.91
2023-01-15T12:25:02.834Z,78.62
2023-01-15T12:28:10.749Z,78.54
2023-01-15T12:31:17.873Z,78.73
2023-01-15T12:34:24.947Z,78.81
2023-01-15T12:37:34.279Z,78.13
2023-01-15T12:40:47.897Z,77.54
2023-01-15T12:44:15.067Z,77.69
2023-01-15T12:47:29.555Z,80.09
2023-01-15T12:50:39.733Z,79.75
2023-01-15T12:53:55.836Z,79.54
2023-01-15T12:57:02.972Z,80.25
2023-01-15T13:00:14.549Z,80.39
2023-01-15T13:03:24.643Z,80.86
2023-01-15T13:06:28.889Z,79.77
2023-01-15T13:09:38.754Z,78.59
2023-01-15T13:12:41.241Z,78.90
2023-01-15T13:16:06.999Z,78.01
2023-01-15T13:19:32.715Z,77.33
2023-01-15T13:22:46.999Z,78.64
2023-01-15T13:26:09.723Z,76.83
2023-01-15T13:29:20.142Z,78.33
2023-01-15T13:32:26.066Z,78.11
2023-01-15T13:35:32.762Z,76.92
2023-01-15T13:38:40.661Z,76.92
2023-01-15T13:42:08.541Z,76.43
2023-01-15T13:45:34.735Z,77.09
2023-01-15T13:48:45.251Z,75.52
2023-01-15T13:51:50.290Z,75.58
2023-01-15T13:54:55.308Z,77.70
2023-01-15T13:57:59.580Z,77.30
2023-01-15T14:01:08.508Z,75.58
2023-01-15T14:04:17.592Z,74.94
2023-01-15T14:07:23.707Z,75.48
2023-01-15T14:10:35.218Z,77.04
2023-01-15T14:13:51.828Z,76.36
2023-01-15T14:17:06.956Z,76.21
2023-01-15T14:20:38.279Z,76.91
2023-01-15T14:24:12.906Z,76.32
2023-01-15T14:27:30.768Z,77.24
2023-01-15T14:31:01.558Z,76.74
2023-01-15T14:34:16.531Z,76.51
2023-01-15T14:37:26.767Z,76.69
2023-01-15T14:40:31.180Z,76.43
2023-01-15T14:43:37.937Z,75.53
2023-01-15T14:46:42.129Z,76.32
2023-01-15T14:49:52.348Z,76.88
2023-01-15T14:52:59.609Z,77.53
2023-01-15T14:56:14.241Z,76.91
2023-01-15T14:59:23.436Z,78.57
2023-01-15T15:02:35.035Z,78.68
2023-01-15T15:05:37.635Z,78.46
2023-01-15T15:08:42.690Z,77.73
2023-01-15T15:12:07.831Z,78.18
2023-01-15T15:15:15.370Z,78.11
2023-01-15T15:18:29.110Z,77.33
2023-01-15T15:21:36.512Z,78.01
2023-01-15T15:24:49.023Z,76.85
2023-01-15T15:28:08.578Z,77.65
2023-01-15T15:31:11.294Z,77.94
2023-01-15T15:34:18.009Z,77.84
2023-01-15T15:37:21.578Z,77.14
2023-01-15T15:40:31.317Z,77.90
2023-01-15T15:44:17.527Z,76.83
2023-01-15T15:47:39.659Z,78.32
2023-01-15T15:50:47.990Z,77.59
2023-01-15T15:53:50.174Z,77.74
2023-01-15T15:56:54.066Z,76.37
2023-01-15T15:59:56.462Z,77.08
2023-01-15T16:03:04.354Z,77.61
2023-01-15T16:06:08.312Z,77.05
2023-01-15T16:09:11.068Z,76.23
2023-01-15T16:12:14.384Z,75.30
2023-01-15T16:15:19.261Z,75.40
2023-01-15T16:18:27.889Z,75.46
2023-01-15T16:21:34.224Z,75.74
2023-01-15T16:24:36.288Z,75.91
2023-01-15T16:27:38.415Z,76.24
2023-01-15T16:30:40.372Z,75.55
2023-01-15T16:33:46.036Z,75.18
2023-01-15T16:36:50.425Z,75.68
2023-01-15T16:39:52.518Z,76.51
2023-01-15T16:43:07.147Z,74.78
2023-01-15T16:46:17.953Z,76.11
2023-01-15T16:49:26.337Z,75.80
2023-01-15T16:52:50.662Z,77.02
2023-01-15T16:55:57.121Z,76.26
2023-01-15T16:58:58.902Z,76.12
2023-01-15T17:02:07.163Z,76.24
2023-01-15T17:05:21.515Z,75.34
2023-01-15T17:08:34.406Z,75.62
2023-01-15T17:11:36.582Z,76.96
2023-01-15T17:14:38.671Z,77.62
2023-01-15T17:17:41.169Z,75.85
2023-01-15T17:20:44.112Z,76.00
2023-01-15T17:23:47.977Z,75.25
2023-01-15T17:26:49.940Z,74.90
2023-01-15T17:29:51.835Z,75.45
2023-01-15T17:32:54.018Z,74.88
2023-01-15T17:35:58.325Z,75.77
2023-01-15T17:39:01.764Z,75.12
2023-01-15T17:42:12.958Z,76.14
2023-01-15T17:45:18.505Z,75.99
2023-01-15T17:48:20.345Z,76.35
2023-01-15T17:51:22.496Z,76.24
2023-01-15T17:54:44.542Z,76.02
2023-01-15T17:58:05.059Z,76.01
2023-01-15T18:01:34.095Z,75.40
2023-01-15T18:04:58.429Z,76.14
2023-01-15T18:08:03.419Z,76.70
2023-01-15T18:11:06.873Z,76.56
2023-01-15T18:14:08.921Z,76.53
2023-01-15T18:17:11.752Z,76.61
2023-01-15T18:20:14.440Z,76.99
2023-01-15T18:23:16.814Z,78.61
2023-01-15T18:26:20.095Z,78.20
2023-01-15T18:29:22.280Z,77.97
2023-01-15T18:32:24.829Z,78.00
2023-01-15T18:35:26.760Z,78.08
2023-01-15T18:38:28.599Z,78.26
2023-01-15T18:41:36.247Z,77.59
2023-01-15T18:44:56.788Z,77.88
2023-01-15T18:48:01.447Z,79.33
2023-01-15T18:51:07.844Z,79.27
2023-01-15T18:54:10.336Z,80.23
2023-01-15T18:57:13.793Z,80.22
2023-01-15T19:00:16.237Z,79.93
2023-01-15T19:03:18.041Z,80.59
2023-01-15T19:06:19.950Z,81.05
2023-01-15T19:09:24.500Z,81.92
2023-01-15T19:12:27.574Z,81.24
2023-01-15T19:15:48.097Z,81.16
2023-01-15T19:18:53.694Z,80.62
2023-01-15T19:22:14.699Z,80.90
2023-01-15T19:25:16.823Z,80.50
2023-01-15T19:28:21.564Z,80.46
2023-01-15T19:31:39.572Z,79.93
2023-01-15T19:34:41.423Z,80.67
2023-01-15T19:37:43.777Z,80.88
2023-01-15T19:40:45.609Z,80.67
2023-01-15T19:44:07.662Z,80.22
2023-01-15T19:47:31.123Z,80.43
2023-01-15T19:50:35.534Z,79.87
2023-01-15T19:53:40.244Z,80.05
2023-01-15T19:56:42.339Z,80.11
2023-01-15T19:59:49.089Z,80.57
2023-01-15T20:02:51.022Z,80.43
2023-01-15T20:05:52.993Z,80.54
2023-01-15T20:08:55.254Z,80.60
2023-01-15T20:12:16.022Z,80.65
2023-01-15T20:15:19.554Z,81.12
2023-01-15T20:18:23.710Z,81.38
2023-01-15T20:21:25.619Z,81.76
2023-01-15T20:24:27.407Z,81.99
2023-01-15T20:27:32.324Z,81.02
2023-01-15T20:30:35.696Z,81.81
2023-01-15T20:33:37.759Z,81.99
2023-01-15T20:36:39.494Z,81.21
2023-01-15T20:39:41.271Z,82.72
2023-01-15T20:43:02.139Z,86.01
2023-01-15T20:46:10.764Z,85.97
2023-01-15T20:49:28.911Z,85.28
2023-01-15T20:52:30.800Z,85.49
2023-01-15T20:55:54.467Z,86.36
2023-01-15T20:58:58.777Z,87.88
2023-01-15T21:02:02.291Z,90.35
2023-01-15T21:05:04.713Z,92.40
2023-01-15T21:08:06.569Z,93.22
2023-01-15T21:11:08.573Z,93.95
2023-01-15T21:14:10.667Z,94.42
2023-01-15T21:17:13.796Z,93.30
2023-01-15T21:20:18.496Z,93.46
2023-01-15T21:23:20.788Z,92.59
2023-01-15T21:26:25.014Z,92.34
2023-01-15T21:29:27.199Z,92.12
2023-01-15T21:32:30.480Z,92.12
2023-01-15T21:35:32.393Z,92.25
2023-01-15T21:38:34.502Z,91.81
2023-01-15T21:41:54.610Z,91.55
2023-01-15T21:44:56.490Z,91.79
2023-01-15T21:48:00.195Z,91.67
2023-01-15T21:51:05.360Z,90.75
2023-01-15T21:54:07.198Z,91.21
2023-01-15T21:57:10.214Z,89.88
2023-01-15T22:00:13.460Z,89.14
2023-01-15T22:03:18.041Z,89.97
2023-01-15T22:06:19.896Z,89.63
2023-01-15T22:09:22.968Z,89.23
2023-01-15T22:12:24.844Z,88.35
2023-01-15T22:15:26.854Z,87.70
2023-01-15T22:18:30.924Z,87.09
2023-01-15T22:21:32.903Z,87.05
2023-01-15T22:24:36.654Z,86.49
2023-01-15T22:27:40.885Z,85.68
2023-01-15T22:30:42.817Z,86.25
2023-01-15T22:33:46.432Z,85.88
2023-01-15T22:36:48.730Z,85.92
2023-01-15T22:39:50.428Z,86.25
2023-01-15T22:42:52.388Z,85.71
2023-01-15T22:45:54.274Z,85.46
2023-01-15T22:48:57.903Z,85.29
2023-01-15T22:51:59.786Z,85.52
2023-01-15T22:55:01.738Z,85.20
2023-01-15T22:58:03.610Z,85.63
2023-01-15T23:01:05.669Z,84.46
2023-01-15T23:04:12.972Z,85.53
2023-01-15T23:07:17.547Z,84.96
2023-01-15T23:10:19.802Z,85.21
2023-01-15T23:13:21.771Z,84.81
2023-01-15T23:16:24.018Z,84.73
2023-01-15T23:19:28.315Z,83.97
2023-01-15T23:22:30.427Z,84.67
2023-01-15T23:25:32.211Z,84.76
2023-01-15T23:28:37.210Z,85.15
2023-01-15T23:31:39.499Z,85.26
2023-01-15T23:34:42.469Z,85.76
2023-01-15T23:37:44.272Z,86.12
2023-01-15T23:40:46.573Z,86.81
2023-01-15T23:44:06.741Z,86.58
2023-01-15T23:47:08.830Z,86.26
2023-01-15T23:50:12.395Z,85.62
2023-01-15T23:53:17.690Z,84.96
2023-01-15T23:56:19.512Z,85.13
2023-01-15T23:59:21.456Z,85.18
